createdAt,value
2017-03-23T00:00:55.642Z,100225
2017-03-23T00:01:56.240Z,100231
2017-03-23T00:02:56.309Z,100227
2017-03-23T00:03:56.371Z,100228
2017-03-23T00:04:56.401Z,100229
2017-03-23T00:05:56.448Z,100231
2017-03-23T00:06:56.507Z,100232
2017-03-23T00:07:56.569Z,100230
2017-03-23T00:08:56.029Z,100232
2017-03-23T00:09:56.113Z,100237
2017-03-23T00:10:56.700Z,100229
2017-03-23T00:11:56.191Z,100233
2017-03-23T00:12:56.217Z,100231
2017-03-23T00:13:56.240Z,100231
2017-03-23T00:14:56.273Z,100229
2017-03-23T00:15:56.310Z,100229
2017-03-23T00:16:56.323Z,100227
2017-03-23T00:17:56.453Z,100219
2017-03-23T00:18:56.554Z,100225
2017-03-23T00:19:57.238Z,100225
2017-03-23T00:20:57.173Z,100227
2017-03-23T00:21:56.680Z,100227
2017-03-23T00:22:56.644Z,100223
2017-03-23T00:23:57.229Z,100224
2017-03-23T00:24:56.702Z,100220
2017-03-23T00:25:56.796Z,100220
2017-03-23T00:26:57.346Z,100222
2017-03-23T00:27:57.423Z,100222
2017-03-23T00:28:56.936Z,100217
2017-03-23T00:29:57.484Z,100221
2017-03-23T00:30:57.014Z,100221
2017-03-23T00:31:57.128Z,100222
2017-03-23T00:32:57.632Z,100216
2017-03-23T00:33:57.125Z,100223
2017-03-23T00:34:57.792Z,100218
2017-03-23T00:35:57.243Z,100219
2017-03-23T00:36:57.387Z,100219
2017-03-23T00:37:57.943Z,100216
2017-03-23T00:38:57.995Z,100216
2017-03-23T00:39:57.448Z,100219
2017-03-23T00:40:57.461Z,100209
2017-03-23T00:41:58.017Z,100220
2017-03-23T00:42:57.560Z,100218
2017-03-23T00:43:58.155Z,100222
2017-03-23T00:44:58.196Z,100220
2017-03-23T00:45:57.790Z,100222
2017-03-23T00:46:57.865Z,100224
2017-03-23T00:47:57.906Z,100218
2017-03-23T00:48:58.477Z,100218
2017-03-23T00:49:57.949Z,100212
2017-03-23T00:50:58.533Z,100216
2017-03-23T00:51:58.094Z,100212
2017-03-23T00:52:58.684Z,100215
2017-03-23T00:53:58.147Z,100212
2017-03-23T00:54:58.187Z,100215
2017-03-23T00:55:58.243Z,100213
2017-03-23T00:56:58.326Z,100214
2017-03-23T00:57:58.834Z,100212
2017-03-23T00:58:58.904Z,100213
2017-03-23T00:59:58.441Z,100213
2017-03-23T01:00:59.071Z,100211
2017-03-23T01:01:59.142Z,100217
2017-03-23T01:02:59.265Z,100217
2017-03-23T01:03:59.298Z,100214
2017-03-23T01:04:59.340Z,100219
2017-03-23T01:05:58.851Z,100221
2017-03-23T01:06:59.415Z,100211
2017-03-23T01:07:59.472Z,100220
2017-03-23T01:08:58.991Z,100221
2017-03-23T01:09:59.570Z,100219
2017-03-23T01:10:59.060Z,100218
2017-03-23T01:11:59.150Z,100217
2017-03-23T01:12:59.806Z,100215
2017-03-23T01:13:59.799Z,100214
2017-03-23T01:14:59.830Z,100212
2017-03-23T01:15:59.324Z,100208
2017-03-23T01:16:59.931Z,100206
2017-03-23T01:18:00.005Z,100205
2017-03-23T01:18:59.973Z,100201
2017-03-23T01:20:00.005Z,100199
2017-03-23T01:20:59.461Z,100198
2017-03-23T01:21:59.537Z,100197
2017-03-23T01:23:00.084Z,100187
2017-03-23T01:23:59.599Z,100192
2017-03-23T01:24:59.600Z,100185
2017-03-23T01:26:00.199Z,100194
2017-03-23T01:26:59.687Z,100193
2017-03-23T01:28:00.263Z,100191
2017-03-23T01:28:59.779Z,100186
2017-03-23T01:30:00.354Z,100188
2017-03-23T01:31:00.433Z,100184
2017-03-23T01:31:59.968Z,100181
2017-03-23T01:33:00.531Z,100181
2017-03-23T01:34:00.570Z,100176
2017-03-23T01:35:00.554Z,100182
2017-03-23T01:36:00.688Z,100184
2017-03-23T01:37:00.177Z,100182
2017-03-23T01:38:00.740Z,100180
2017-03-23T01:39:00.755Z,100174
2017-03-23T01:40:00.770Z,100179
2017-03-23T01:44:00.789Z,100180
2017-03-23T01:45:00.659Z,100177
2017-03-23T01:46:00.706Z,100178
2017-03-23T01:47:00.763Z,100178
2017-03-23T01:48:00.856Z,100172
2017-03-23T01:49:01.638Z,100182
2017-03-23T01:50:01.491Z,100180
2017-03-23T01:51:01.006Z,100183
2017-03-23T01:52:01.008Z,100180
2017-03-23T01:53:01.555Z,100178
2017-03-23T01:54:01.081Z,100173
2017-03-23T01:55:01.820Z,100182
2017-03-23T01:56:01.194Z,100185
2017-03-23T01:57:01.795Z,100181
2017-03-23T01:58:01.282Z,100193
2017-03-23T01:59:01.298Z,100189
2017-03-23T02:00:01.864Z,100192
2017-03-23T02:01:02.093Z,100191
2017-03-23T02:02:01.974Z,100189
2017-03-23T02:03:01.453Z,100189
2017-03-23T02:04:01.515Z,100188
2017-03-23T02:05:02.071Z,100187
2017-03-23T02:06:02.165Z,100188
2017-03-23T02:07:02.501Z,100190
2017-03-23T02:08:02.261Z,100187
2017-03-23T02:09:02.986Z,100183
2017-03-23T02:10:02.273Z,100189
2017-03-23T02:11:02.235Z,100184
2017-03-23T02:12:02.267Z,100191
2017-03-23T02:13:01.980Z,100184
2017-03-23T02:14:01.829Z,100189
2017-03-23T02:15:02.383Z,100191
2017-03-23T02:16:02.455Z,100192
2017-03-23T02:17:02.437Z,100191
2017-03-23T02:18:01.946Z,100183
2017-03-23T02:19:02.249Z,100193
2017-03-23T02:20:02.620Z,100195
2017-03-23T02:21:02.104Z,100195
2017-03-23T02:22:02.232Z,100194
2017-03-23T02:23:02.283Z,100195
2017-03-23T02:24:02.366Z,100190
2017-03-23T02:25:03.069Z,100193
2017-03-23T02:26:02.996Z,100187
2017-03-23T02:27:02.520Z,100195
2017-03-23T02:28:02.553Z,100192
2017-03-23T02:29:02.619Z,100188
2017-03-23T02:30:02.576Z,100187
2017-03-23T02:31:03.394Z,100188
2017-03-23T02:32:02.720Z,100186
2017-03-23T02:33:03.280Z,100185
2017-03-23T02:34:02.826Z,100185
2017-03-23T02:35:02.914Z,100183
2017-03-23T02:36:03.422Z,100185
2017-03-23T02:37:02.932Z,100181
2017-03-23T02:38:03.056Z,100183
2017-03-23T02:39:03.022Z,100174
2017-03-23T02:40:03.649Z,100181
2017-03-23T02:41:03.116Z,100182
2017-03-23T02:42:03.130Z,100182
2017-03-23T02:43:03.262Z,100185
2017-03-23T02:44:03.907Z,100178
2017-03-23T02:45:03.419Z,100189
2017-03-23T02:46:03.523Z,100185
2017-03-23T02:47:03.616Z,100185
2017-03-23T02:48:04.205Z,100186
2017-03-23T02:49:03.717Z,100182
2017-03-23T02:50:04.286Z,100187
2017-03-23T02:51:03.858Z,100184
2017-03-23T02:52:04.362Z,100181
2017-03-23T02:53:03.857Z,100185
2017-03-23T02:54:04.462Z,100186
2017-03-23T02:55:04.444Z,100177
2017-03-23T02:56:04.005Z,100184
2017-03-23T02:57:04.044Z,100182
2017-03-23T02:58:04.084Z,100177
2017-03-23T02:59:04.114Z,100174
2017-03-23T03:00:04.168Z,100171
2017-03-23T03:01:04.253Z,100167
2017-03-23T03:02:04.788Z,100163
2017-03-23T03:03:04.308Z,100156
2017-03-23T03:04:04.882Z,100155
2017-03-23T03:05:04.927Z,100154
2017-03-23T03:06:05.028Z,100152
2017-03-23T03:07:04.561Z,100151
2017-03-23T03:08:05.114Z,100148
2017-03-23T03:09:04.645Z,100145
2017-03-23T03:10:04.650Z,100145
2017-03-23T03:11:05.298Z,100142
2017-03-23T03:12:05.330Z,100146
2017-03-23T03:13:04.826Z,100146
2017-03-23T03:14:05.481Z,100147
2017-03-23T03:15:04.960Z,100144
2017-03-23T03:16:05.057Z,100147
2017-03-23T03:17:05.730Z,100140
2017-03-23T03:18:05.291Z,100147
2017-03-23T03:19:05.300Z,100153
2017-03-23T03:20:05.914Z,100152
2017-03-23T03:21:05.956Z,100155
2017-03-23T03:22:05.990Z,100157
2017-03-23T03:23:05.508Z,100165
2017-03-23T03:24:06.189Z,100168
2017-03-23T03:25:06.222Z,100170
2017-03-23T03:26:05.719Z,100176
2017-03-23T03:27:05.779Z,100176
2017-03-23T03:28:06.405Z,100175
2017-03-23T03:29:06.449Z,100168
2017-03-23T03:30:05.920Z,100173
2017-03-23T03:31:06.521Z,100171
2017-03-23T03:32:06.571Z,100172
2017-03-23T03:33:06.079Z,100176
2017-03-23T03:34:06.618Z,100175
2017-03-23T03:35:06.625Z,100167
2017-03-23T03:36:06.125Z,100175
2017-03-23T03:37:06.130Z,100175
2017-03-23T03:38:06.704Z,100180
2017-03-23T03:39:06.183Z,100177
2017-03-23T03:40:06.769Z,100177
2017-03-23T03:41:06.797Z,100182
2017-03-23T03:42:06.343Z,100179
2017-03-23T03:43:06.307Z,100188
2017-03-23T03:44:06.956Z,100186
2017-03-23T03:45:06.460Z,100187
2017-03-23T03:46:07.021Z,100188
2017-03-23T03:47:06.552Z,100189
2017-03-23T03:48:06.594Z,100189
2017-03-23T03:49:06.624Z,100189
2017-03-23T03:50:06.681Z,100188
2017-03-23T03:51:06.735Z,100194
2017-03-23T03:52:06.767Z,100191
2017-03-23T03:53:07.357Z,100190
2017-03-23T03:54:06.856Z,100190
2017-03-23T03:55:07.070Z,100195
2017-03-23T03:56:07.434Z,100190
2017-03-23T03:57:07.454Z,100199
2017-03-23T03:58:06.948Z,100203
2017-03-23T03:59:07.510Z,100200
2017-03-23T04:00:06.991Z,100197
2017-03-23T04:01:07.803Z,100202
2017-03-23T04:02:07.066Z,100203
2017-03-23T04:03:07.639Z,100200
2017-03-23T04:04:07.100Z,100206
2017-03-23T04:05:07.711Z,100210
2017-03-23T04:06:07.729Z,100207
2017-03-23T04:07:08.016Z,100210
2017-03-23T04:08:07.370Z,100210
2017-03-23T04:09:07.411Z,100213
2017-03-23T04:10:07.947Z,100213
2017-03-23T04:11:08.012Z,100211
2017-03-23T04:12:07.537Z,100214
2017-03-23T04:13:08.280Z,100214
2017-03-23T04:14:07.573Z,100214
2017-03-23T04:15:08.183Z,100208
2017-03-23T04:16:08.272Z,100214
2017-03-23T04:17:07.769Z,100214
2017-03-23T04:18:07.837Z,100215
2017-03-23T04:19:08.536Z,100215
2017-03-23T04:20:08.395Z,100216
2017-03-23T04:21:07.914Z,100213
2017-03-23T04:22:08.560Z,100215
2017-03-23T04:23:08.654Z,100214
2017-03-23T04:24:08.720Z,100218
2017-03-23T04:25:08.944Z,100215
2017-03-23T04:26:08.817Z,100220
2017-03-23T04:27:08.801Z,100219
2017-03-23T04:28:08.268Z,100216
2017-03-23T04:29:08.335Z,100216
2017-03-23T04:30:08.846Z,100217
2017-03-23T04:31:08.515Z,100213
2017-03-23T04:32:08.996Z,100217
2017-03-23T04:33:08.428Z,100214
2017-03-23T04:34:08.479Z,100214
2017-03-23T04:35:09.008Z,100215
2017-03-23T04:36:08.555Z,100210
2017-03-23T04:37:09.275Z,100216
2017-03-23T04:38:09.185Z,100217
2017-03-23T04:39:08.698Z,100212
2017-03-23T04:40:08.767Z,100216
2017-03-23T04:41:09.318Z,100215
2017-03-23T04:42:09.420Z,100216
2017-03-23T04:43:09.062Z,100216
2017-03-23T04:44:08.971Z,100213
2017-03-23T04:45:09.724Z,100210
2017-03-23T04:46:09.598Z,100214
2017-03-23T04:47:09.108Z,100215
2017-03-23T04:48:09.186Z,100212
2017-03-23T04:49:09.429Z,100207
2017-03-23T04:50:09.839Z,100216
2017-03-23T04:51:09.343Z,100212
2017-03-23T04:52:09.390Z,100218
2017-03-23T04:53:09.998Z,100214
2017-03-23T04:54:09.478Z,100215
2017-03-23T04:55:09.684Z,100204
2017-03-23T04:56:09.618Z,100209
2017-03-23T04:57:10.231Z,100213
2017-03-23T04:58:10.274Z,100214
2017-03-23T04:59:10.398Z,100214
2017-03-23T05:00:10.640Z,100216
2017-03-23T05:01:10.547Z,100212
2017-03-23T05:02:10.542Z,100205
2017-03-23T05:03:10.055Z,100205
2017-03-23T05:04:10.171Z,100209
2017-03-23T05:05:10.732Z,100205
2017-03-23T05:06:10.433Z,100203
2017-03-23T05:07:10.853Z,100209
2017-03-23T05:08:10.386Z,100209
2017-03-23T05:09:10.990Z,100208
2017-03-23T05:10:11.033Z,100209
2017-03-23T05:11:11.132Z,100204
2017-03-23T05:12:11.385Z,100199
2017-03-23T05:13:10.714Z,100202
2017-03-23T05:14:11.328Z,100193
2017-03-23T05:15:10.772Z,100196
2017-03-23T05:16:11.412Z,100202
2017-03-23T05:17:11.448Z,100206
2017-03-23T05:18:10.942Z,100205
2017-03-23T05:19:10.988Z,100206
2017-03-23T05:20:11.027Z,100212
2017-03-23T05:21:11.620Z,100215
2017-03-23T05:22:11.660Z,100218
2017-03-23T05:23:11.134Z,100227
2017-03-23T05:24:11.707Z,100226
2017-03-23T05:25:11.764Z,100221
2017-03-23T05:26:11.817Z,100230
2017-03-23T05:27:11.852Z,100231
2017-03-23T05:28:11.892Z,100224
2017-03-23T05:29:11.416Z,100230
2017-03-23T05:30:11.473Z,100233
2017-03-23T05:31:11.518Z,100230
2017-03-23T05:32:11.458Z,100228
2017-03-23T05:33:12.066Z,100230
2017-03-23T05:34:11.594Z,100234
2017-03-23T05:35:12.169Z,100236
2017-03-23T05:36:11.653Z,100241
2017-03-23T05:37:11.677Z,100241
2017-03-23T05:38:11.771Z,100249
2017-03-23T05:39:12.274Z,100239
2017-03-23T05:40:11.850Z,100242
2017-03-23T05:41:12.418Z,100239
2017-03-23T05:42:11.937Z,100241
2017-03-23T05:43:12.052Z,100239
2017-03-23T05:44:12.171Z,100239
2017-03-23T05:45:12.724Z,100236
2017-03-23T05:46:12.773Z,100239
2017-03-23T05:47:12.806Z,100236
2017-03-23T05:48:12.281Z,100231
2017-03-23T05:49:12.890Z,100237
2017-03-23T05:50:12.910Z,100239
2017-03-23T05:51:12.437Z,100245
2017-03-23T05:52:12.487Z,100243
2017-03-23T05:53:12.525Z,100251
2017-03-23T05:54:13.088Z,100247
2017-03-23T05:55:12.582Z,100244
2017-03-23T05:56:12.547Z,100250
2017-03-23T05:57:13.104Z,100251
2017-03-23T05:58:12.613Z,100248
2017-03-23T05:59:13.194Z,100248
2017-03-23T06:00:12.696Z,100243
2017-03-23T06:01:12.689Z,100240
2017-03-23T06:02:13.326Z,100244
2017-03-23T06:03:12.803Z,100241
2017-03-23T06:04:13.377Z,100247
2017-03-23T06:05:13.466Z,100245
2017-03-23T06:06:13.753Z,100254
2017-03-23T06:07:13.007Z,100254
2017-03-23T06:08:13.593Z,100257
2017-03-23T06:09:13.697Z,100261
2017-03-23T06:10:13.689Z,100259
2017-03-23T06:11:13.229Z,100260
2017-03-23T06:12:13.986Z,100261
2017-03-23T06:13:13.826Z,100259
2017-03-23T06:14:13.913Z,100267
2017-03-23T06:15:13.350Z,100265
2017-03-23T06:16:13.985Z,100269
2017-03-23T06:17:13.539Z,100269
2017-03-23T06:18:14.284Z,100262
2017-03-23T06:19:13.707Z,100269
2017-03-23T06:20:14.253Z,100268
2017-03-23T06:21:14.261Z,100270
2017-03-23T06:22:14.280Z,100269
2017-03-23T06:23:13.787Z,100274
2017-03-23T06:24:14.543Z,100271
2017-03-23T06:25:14.344Z,100278
2017-03-23T06:26:14.377Z,100276
2017-03-23T06:27:13.876Z,100283
2017-03-23T06:28:14.471Z,100276
2017-03-23T06:29:14.478Z,100285
2017-03-23T06:30:14.745Z,100284
2017-03-23T06:31:14.655Z,100288
2017-03-23T06:32:14.107Z,100292
2017-03-23T06:33:14.773Z,100294
2017-03-23T06:34:14.230Z,100289
2017-03-23T06:35:14.258Z,100295
2017-03-23T06:36:15.014Z,100297
2017-03-23T06:37:14.827Z,100291
2017-03-23T06:38:14.355Z,100289
2017-03-23T06:39:14.876Z,100296
2017-03-23T06:40:14.891Z,100296
2017-03-23T06:41:14.364Z,100291
2017-03-23T06:42:15.176Z,100298
2017-03-23T06:43:14.506Z,100300
2017-03-23T06:44:14.497Z,100303
2017-03-23T06:45:14.537Z,100302
2017-03-23T06:46:15.176Z,100294
2017-03-23T06:47:14.701Z,100292
2017-03-23T06:48:15.495Z,100303
2017-03-23T06:49:15.345Z,100301
2017-03-23T06:50:14.782Z,100305
2017-03-23T06:51:14.795Z,100308
2017-03-23T06:52:15.408Z,100302
2017-03-23T06:53:14.854Z,100307
2017-03-23T06:54:15.807Z,100306
2017-03-23T06:55:14.960Z,100310
2017-03-23T06:56:15.100Z,100308
2017-03-23T06:57:15.698Z,100310
2017-03-23T06:58:15.802Z,100309
2017-03-23T06:59:15.790Z,100310
2017-03-23T07:00:16.044Z,100315
2017-03-23T07:01:15.946Z,100315
2017-03-23T07:02:15.457Z,100319
2017-03-23T07:03:15.971Z,100320
2017-03-23T07:04:15.492Z,100319
2017-03-23T07:05:15.477Z,100320
2017-03-23T07:06:16.305Z,100326
2017-03-23T07:07:15.610Z,100325
2017-03-23T07:08:15.655Z,100325
2017-03-23T07:09:15.747Z,100328
2017-03-23T07:10:16.288Z,100326
2017-03-23T07:11:16.137Z,100326
2017-03-23T07:12:16.504Z,100324
2017-03-23T07:13:16.548Z,100330
2017-03-23T07:14:16.024Z,100325
2017-03-23T07:15:16.559Z,100327
2017-03-23T07:16:16.097Z,100326
2017-03-23T07:17:16.948Z,100325
2017-03-23T07:18:17.588Z,100328
2017-03-23T07:19:16.277Z,100329
2017-03-23T07:20:17.456Z,100331
2017-03-23T07:21:16.335Z,100332
2017-03-23T07:22:16.382Z,100330
2017-03-23T07:23:17.221Z,100324
2017-03-23T07:24:16.514Z,100324
2017-03-23T07:25:17.185Z,100325
2017-03-23T07:26:17.129Z,100327
2017-03-23T07:27:16.643Z,100331
2017-03-23T07:28:17.231Z,100330
2017-03-23T07:29:17.437Z,100323
2017-03-23T07:30:16.757Z,100323
2017-03-23T07:31:16.727Z,100327
2017-03-23T07:32:17.359Z,100323
2017-03-23T07:33:16.889Z,100331
2017-03-23T07:34:17.524Z,100331
2017-03-23T07:35:17.169Z,100329
2017-03-23T07:36:17.669Z,100333
2017-03-23T07:37:17.162Z,100336
2017-03-23T07:38:17.761Z,100334
2017-03-23T07:39:17.792Z,100337
2017-03-23T07:40:17.271Z,100335
2017-03-23T07:41:17.517Z,100327
2017-03-23T07:42:17.899Z,100337
2017-03-23T07:43:18.043Z,100333
2017-03-23T07:44:17.534Z,100337
2017-03-23T07:45:18.140Z,100338
2017-03-23T07:46:17.640Z,100335
2017-03-23T07:47:18.391Z,100340
2017-03-23T07:48:18.193Z,100344
2017-03-23T07:49:18.242Z,100346
2017-03-23T07:50:19.549Z,100348
2017-03-23T07:51:17.714Z,100349
2017-03-23T07:52:18.311Z,100353
2017-03-23T07:53:18.505Z,100352
2017-03-23T07:54:18.400Z,100345
2017-03-23T07:55:18.419Z,100357
2017-03-23T07:56:18.398Z,100353
2017-03-23T07:57:18.445Z,100354
2017-03-23T07:58:17.921Z,100355
2017-03-23T07:59:18.684Z,100352
2017-03-23T08:00:18.103Z,100352
2017-03-23T08:01:18.627Z,100353
2017-03-23T08:02:18.724Z,100354
2017-03-23T08:03:18.199Z,100351
2017-03-23T08:04:18.837Z,100351
2017-03-23T08:05:18.507Z,100353
2017-03-23T08:06:18.431Z,100353
2017-03-23T08:07:18.473Z,100355
2017-03-23T08:08:18.977Z,100352
2017-03-23T08:09:19.037Z,100351
2017-03-23T08:10:19.765Z,100352
2017-03-23T08:11:18.717Z,100353
2017-03-23T08:12:19.709Z,100353
2017-03-23T08:13:22.273Z,100357
2017-03-23T08:14:19.292Z,100358
2017-03-23T08:15:19.609Z,100360
2017-03-23T08:16:20.047Z,100359
2017-03-23T08:17:19.218Z,100358
2017-03-23T08:18:18.990Z,100362
2017-03-23T08:19:20.229Z,100355
2017-03-23T08:20:20.251Z,100359
2017-03-23T08:21:21.532Z,100356
2017-03-23T08:22:21.021Z,100357
2017-03-23T08:23:21.794Z,100358
2017-03-23T08:24:19.762Z,100356
2017-03-23T08:25:19.867Z,100351
2017-03-23T08:26:20.521Z,100360
2017-03-23T08:27:19.847Z,100359
2017-03-23T08:28:19.987Z,100357
2017-03-23T08:29:21.294Z,100359
2017-03-23T08:30:20.742Z,100360
2017-03-23T08:31:20.091Z,100357
2017-03-23T08:32:19.569Z,100356
2017-03-23T08:33:20.156Z,100358
2017-03-23T08:34:20.222Z,100356
2017-03-23T08:35:21.096Z,100358
2017-03-23T08:36:23.421Z,100359
2017-03-23T08:37:21.951Z,100366
2017-03-23T08:38:26.433Z,100359
2017-03-23T08:39:29.639Z,100359
2017-03-23T08:40:20.145Z,100363
2017-03-23T08:41:27.611Z,100367
2017-03-23T08:42:20.186Z,100368
2017-03-23T08:43:20.832Z,100371
2017-03-23T08:44:20.769Z,100369
2017-03-23T08:45:21.349Z,100370
2017-03-23T08:46:20.289Z,100373
2017-03-23T08:47:20.537Z,100367
2017-03-23T08:48:20.456Z,100369
2017-03-23T08:49:21.011Z,100368
2017-03-23T08:50:20.461Z,100366
2017-03-23T08:51:20.556Z,100367
2017-03-23T08:52:20.633Z,100375
2017-03-23T08:53:20.934Z,100370
2017-03-23T08:54:20.801Z,100371
2017-03-23T08:55:21.463Z,100364
2017-03-23T08:56:20.957Z,100366
2017-03-23T08:57:21.459Z,100365
2017-03-23T08:58:21.537Z,100364
2017-03-23T08:59:21.695Z,100357
2017-03-23T09:00:20.946Z,100358
2017-03-23T09:01:21.059Z,100357
2017-03-23T09:02:21.029Z,100356
2017-03-23T09:03:21.589Z,100360
2017-03-23T09:04:21.636Z,100361
2017-03-23T09:05:22.016Z,100360
2017-03-23T09:06:21.707Z,100355
2017-03-23T09:07:21.198Z,100353
2017-03-23T09:08:21.728Z,100359
2017-03-23T09:09:21.768Z,100352
2017-03-23T09:10:22.632Z,100358
2017-03-23T09:11:22.019Z,100356
2017-03-23T09:12:21.912Z,100358
2017-03-23T09:13:21.904Z,100361
2017-03-23T09:14:21.444Z,100363
2017-03-23T09:15:21.424Z,100364
2017-03-23T09:16:21.993Z,100362
2017-03-23T09:17:21.687Z,100370
2017-03-23T09:18:21.555Z,100371
2017-03-23T09:19:22.233Z,100370
2017-03-23T09:20:22.261Z,100367
2017-03-23T09:21:22.374Z,100368
2017-03-23T09:22:22.645Z,100368
2017-03-23T09:23:22.614Z,100371
2017-03-23T09:24:23.973Z,100374
2017-03-23T09:25:22.039Z,100376
2017-03-23T09:26:22.095Z,100378
2017-03-23T09:27:22.850Z,100376
2017-03-23T09:28:22.895Z,100373
2017-03-23T09:29:24.135Z,100376
2017-03-23T09:30:23.434Z,100380
2017-03-23T09:31:22.274Z,100377
2017-03-23T09:32:23.728Z,100379
2017-03-23T09:33:22.314Z,100379
2017-03-23T09:34:22.552Z,100380
2017-03-23T09:35:22.493Z,100377
2017-03-23T09:36:23.070Z,100381
2017-03-23T09:37:23.317Z,100385
2017-03-23T09:38:22.598Z,100375
2017-03-23T09:39:22.630Z,100386
2017-03-23T09:40:22.846Z,100386
2017-03-23T09:41:23.296Z,100387
2017-03-23T09:42:22.797Z,100385
2017-03-23T09:43:22.838Z,100381
2017-03-23T09:44:23.421Z,100378
2017-03-23T09:45:23.597Z,100386
2017-03-23T09:46:23.715Z,100380
2017-03-23T09:47:23.089Z,100385
2017-03-23T09:48:23.717Z,100384
2017-03-23T09:49:23.169Z,100380
2017-03-23T09:50:23.766Z,100383
2017-03-23T09:51:23.281Z,100389
2017-03-23T09:52:23.511Z,100392
2017-03-23T09:53:23.869Z,100388
2017-03-23T09:54:23.890Z,100389
2017-03-23T09:55:24.012Z,100389
2017-03-23T09:56:23.373Z,100388
2017-03-23T09:57:24.002Z,100383
2017-03-23T09:58:23.683Z,100383
2017-03-23T09:59:23.576Z,100392
2017-03-23T10:00:24.160Z,100387
2017-03-23T10:01:23.704Z,100389
2017-03-23T10:02:23.769Z,100386
2017-03-23T10:03:23.819Z,100387
2017-03-23T10:04:24.704Z,100389
2017-03-23T10:05:23.894Z,100383
2017-03-23T10:06:23.927Z,100390
2017-03-23T10:07:24.458Z,100387
2017-03-23T10:08:24.500Z,100375
2017-03-23T10:09:24.625Z,100383
2017-03-23T10:10:25.015Z,100381
2017-03-23T10:11:24.144Z,100378
2017-03-23T10:12:24.242Z,100385
2017-03-23T10:13:24.872Z,100384
2017-03-23T10:14:25.581Z,100391
2017-03-23T10:15:24.923Z,100388
2017-03-23T10:16:25.058Z,100378
2017-03-23T10:17:25.005Z,100384
2017-03-23T10:18:24.505Z,100381
2017-03-23T10:19:25.125Z,100379
2017-03-23T10:20:25.954Z,100379
2017-03-23T10:21:25.341Z,100372
2017-03-23T10:22:25.546Z,100373
2017-03-23T10:23:26.849Z,100372
2017-03-23T10:24:25.393Z,100379
2017-03-23T10:25:27.880Z,100378
2017-03-23T10:26:25.028Z,100373
2017-03-23T10:27:25.014Z,100377
2017-03-23T10:28:25.209Z,100374
2017-03-23T10:29:25.626Z,100376
2017-03-23T10:30:25.683Z,100369
2017-03-23T10:31:25.266Z,100375
2017-03-23T10:32:25.294Z,100377
2017-03-23T10:33:26.573Z,100373
2017-03-23T10:34:26.090Z,100374
2017-03-23T10:35:25.996Z,100378
2017-03-23T10:36:26.016Z,100377
2017-03-23T10:37:25.460Z,100372
2017-03-23T10:38:26.028Z,100373
2017-03-23T10:39:25.547Z,100373
2017-03-23T10:40:26.346Z,100374
2017-03-23T10:41:26.145Z,100369
2017-03-23T10:42:27.078Z,100372
2017-03-23T10:43:25.754Z,100375
2017-03-23T10:44:25.859Z,100373
2017-03-23T10:45:26.198Z,100374
2017-03-23T10:46:25.995Z,100367
2017-03-23T10:47:26.063Z,100373
2017-03-23T10:48:26.052Z,100374
2017-03-23T10:49:26.739Z,100371
2017-03-23T10:50:26.222Z,100367
2017-03-23T10:51:26.940Z,100364
2017-03-23T10:52:26.779Z,100370
2017-03-23T10:53:26.778Z,100369
2017-03-23T10:54:26.254Z,100368
2017-03-23T10:55:26.819Z,100360
2017-03-23T10:56:26.371Z,100370
2017-03-23T10:57:26.507Z,100371
2017-03-23T10:58:26.384Z,100364
2017-03-23T10:59:26.531Z,100368
2017-03-23T11:00:26.609Z,100371
2017-03-23T11:01:27.166Z,100368
2017-03-23T11:02:28.231Z,100373
2017-03-23T11:03:27.274Z,100370
2017-03-23T11:04:27.349Z,100366
2017-03-23T11:05:27.436Z,100367
2017-03-23T11:06:27.545Z,100371
2017-03-23T11:07:27.045Z,100375
2017-03-23T11:08:27.095Z,100369
2017-03-23T11:09:27.709Z,100362
2017-03-23T11:10:28.312Z,100364
2017-03-23T11:11:27.349Z,100365
2017-03-23T11:12:27.920Z,100371
2017-03-23T11:13:27.994Z,100368
2017-03-23T11:14:27.494Z,100368
2017-03-23T11:15:27.673Z,100370
2017-03-23T11:16:28.169Z,100368
2017-03-23T11:17:28.256Z,100371
2017-03-23T11:18:27.738Z,100370
2017-03-23T11:19:29.035Z,100369
2017-03-23T11:20:27.929Z,100368
2017-03-23T11:21:28.593Z,100367
2017-03-23T11:22:28.062Z,100367
2017-03-23T11:23:28.116Z,100363
2017-03-23T11:24:28.594Z,100365
2017-03-23T11:25:29.588Z,100368
2017-03-23T11:26:28.232Z,100369
2017-03-23T11:27:28.349Z,100368
2017-03-23T11:28:28.919Z,100369
2017-03-23T11:29:29.017Z,100372
2017-03-23T11:30:29.752Z,100367
2017-03-23T11:31:28.507Z,100372
2017-03-23T11:32:28.548Z,100375
2017-03-23T11:33:29.191Z,100369
2017-03-23T11:34:28.650Z,100370
2017-03-23T11:35:29.199Z,100372
2017-03-23T11:36:29.199Z,100371
2017-03-23T11:37:28.745Z,100372
2017-03-23T11:38:28.692Z,100365
2017-03-23T11:39:28.737Z,100356
2017-03-23T11:40:28.765Z,100360
2017-03-23T11:41:28.941Z,100370
2017-03-23T11:42:29.456Z,100373
2017-03-23T11:43:30.182Z,100374
2017-03-23T11:44:29.480Z,100370
2017-03-23T11:45:29.494Z,100367
2017-03-23T11:46:29.546Z,100366
2017-03-23T11:47:29.574Z,100364
2017-03-23T11:48:29.026Z,100381
2017-03-23T11:49:29.112Z,100377
2017-03-23T11:50:29.111Z,100383
2017-03-23T11:51:29.140Z,100376
2017-03-23T11:52:30.396Z,100383
2017-03-23T11:53:29.696Z,100385
2017-03-23T11:54:29.761Z,100383
2017-03-23T11:55:29.252Z,100387
2017-03-23T11:56:29.312Z,100383
2017-03-23T11:57:29.929Z,100378
2017-03-23T11:58:29.456Z,100376
2017-03-23T11:59:29.536Z,100379
2017-03-23T12:00:30.105Z,100376
2017-03-23T12:01:30.165Z,100381
2017-03-23T12:02:30.247Z,100380
2017-03-23T12:03:30.549Z,100380
2017-03-23T12:04:30.307Z,100390
2017-03-23T12:05:29.895Z,100383
2017-03-23T12:06:29.966Z,100384
2017-03-23T12:07:29.996Z,100383
2017-03-23T12:08:30.007Z,100377
2017-03-23T12:09:30.836Z,100374
2017-03-23T12:10:30.636Z,100377
2017-03-23T12:11:30.726Z,100372
2017-03-23T12:12:30.668Z,100372
2017-03-23T12:13:30.270Z,100376
2017-03-23T12:14:30.285Z,100376
2017-03-23T12:15:30.287Z,100363
2017-03-23T12:16:30.900Z,100373
2017-03-23T12:17:30.977Z,100373
2017-03-23T12:18:31.741Z,100374
2017-03-23T12:19:30.645Z,100379
2017-03-23T12:20:30.682Z,100373
2017-03-23T12:21:33.242Z,100369
2017-03-23T12:22:30.840Z,100367
2017-03-23T12:23:30.894Z,100367
2017-03-23T12:24:31.442Z,100364
2017-03-23T12:25:31.143Z,100362
2017-03-23T12:26:31.022Z,100359
2017-03-23T12:27:31.023Z,100362
2017-03-23T12:28:31.608Z,100359
2017-03-23T12:29:31.219Z,100359
2017-03-23T12:30:31.765Z,100360
2017-03-23T12:31:31.823Z,100362
2017-03-23T12:32:31.303Z,100363